sensor_id;sensor_type;location;lat;lon;timestamp;P1;durP1;ratioP1;P2;durP2;ratioP2
6757;SDS011;3416;53.074;8.822;2023-03-19T00:00:17;18.58;;;16.55;;
6757;SDS011;3416;53.074;8.822;2023-03-19T00:02:45;24.25;;;16.17;;
6757;SDS011;3416;53.074;8.822;2023-03-19T00:05:15;15.85;;;14.25;;
6757;SDS011;3416;53.074;8.822;2023-03-19T00:07:42;17.75;;;15.75;;
6757;SDS011;3416;53.074;8.822;2023-03-19T00:10:10;21.35;;;17.17;;
6757;SDS011;3416;53.074;8.822;2023-03-19T00:12:37;20.38;;;15.65;;
6757;SDS011;3416;53.074;8.822;2023-03-19T00:15:06;18.48;;;16.30;;
6757;SDS011;3416;53.074;8.822;2023-03-19T00:17:39;21.83;;;17.90;;
6757;SDS011;3416;53.074;8.822;2023-03-19T00:20:07;26.10;;;20.83;;
6757;SDS011;3416;53.074;8.822;2023-03-19T00:22:35;23.38;;;19.33;;
6757;SDS011;3416;53.074;8.822;2023-03-19T00:25:02;25.20;;;19.55;;
6757;SDS011;3416;53.074;8.822;2023-03-19T00:27:30;18.35;;;16.30;;
6757;SDS011;3416;53.074;8.822;2023-03-19T00:29:57;17.98;;;16.05;;
6757;SDS011;3416;53.074;8.822;2023-03-19T00:32:25;19.00;;;16.42;;
6757;SDS011;3416;53.074;8.822;2023-03-19T00:34:52;24.27;;;19.98;;
6757;SDS011;3416;53.074;8.822;2023-03-19T00:37:19;22.83;;;18.98;;
6757;SDS011;3416;53.074;8.822;2023-03-19T00:39:46;17.65;;;15.85;;
6757;SDS011;3416;53.074;8.822;2023-03-19T00:42:13;23.08;;;19.75;;
6757;SDS011;3416;53.074;8.822;2023-03-19T00:44:40;23.45;;;19.42;;
6757;SDS011;3416;53.074;8.822;2023-03-19T00:47:08;27.90;;;21.85;;
6757;SDS011;3416;53.074;8.822;2023-03-19T00:49:37;24.48;;;19.65;;
6757;SDS011;3416;53.074;8.822;2023-03-19T00:52:04;24.58;;;19.33;;
6757;SDS011;3416;53.074;8.822;2023-03-19T00:54:32;21.25;;;17.58;;
6757;SDS011;3416;53.074;8.822;2023-03-19T00:57:00;21.27;;;18.38;;
6757;SDS011;3416;53.074;8.822;2023-03-19T00:59:27;21.60;;;19.30;;
6757;SDS011;3416;53.074;8.822;2023-03-19T01:01:54;27.55;;;19.35;;
6757;SDS011;3416;53.074;8.822;2023-03-19T01:04:21;24.23;;;19.75;;
6757;SDS011;3416;53.074;8.822;2023-03-19T01:06:51;23.02;;;19.73;;
6757;SDS011;3416;53.074;8.822;2023-03-19T01:09:18;21.60;;;18.50;;
6757;SDS011;3416;53.074;8.822;2023-03-19T01:11:45;27.10;;;21.17;;
6757;SDS011;3416;53.074;8.822;2023-03-19T01:14:13;20.92;;;18.70;;
6757;SDS011;3416;53.074;8.822;2023-03-19T01:16:41;32.28;;;23.83;;
6757;SDS011;3416;53.074;8.822;2023-03-19T01:19:08;24.88;;;19.25;;
6757;SDS011;3416;53.074;8.822;2023-03-19T01:21:36;22.65;;;20.13;;
6757;SDS011;3416;53.074;8.822;2023-03-19T01:24:04;24.33;;;20.70;;
6757;SDS011;3416;53.074;8.822;2023-03-19T01:26:31;26.13;;;20.45;;
6757;SDS011;3416;53.074;8.822;2023-03-19T01:28:58;21.73;;;17.20;;
6757;SDS011;3416;53.074;8.822;2023-03-19T01:31:25;27.23;;;21.38;;
6757;SDS011;3416;53.074;8.822;2023-03-19T01:33:55;21.80;;;19.50;;
6757;SDS011;3416;53.074;8.822;2023-03-19T01:36:22;23.75;;;21.20;;
6757;SDS011;3416;53.074;8.822;2023-03-19T01:38:50;21.50;;;17.75;;
6757;SDS011;3416;53.074;8.822;2023-03-19T01:41:18;23.10;;;19.05;;
6757;SDS011;3416;53.074;8.822;2023-03-19T01:43:45;21.23;;;18.35;;
6757;SDS011;3416;53.074;8.822;2023-03-19T01:46:13;25.58;;;20.02;;
6757;SDS011;3416;53.074;8.822;2023-03-19T01:48:52;25.33;;;19.20;;
6757;SDS011;3416;53.074;8.822;2023-03-19T01:51:22;21.17;;;18.20;;
6757;SDS011;3416;53.074;8.822;2023-03-19T01:53:52;22.55;;;19.08;;
6757;SDS011;3416;53.074;8.822;2023-03-19T01:56:25;21.33;;;16.77;;
6757;SDS011;3416;53.074;8.822;2023-03-19T01:58:56;20.83;;;18.60;;
6757;SDS011;3416;53.074;8.822;2023-03-19T02:01:28;23.50;;;18.50;;
6757;SDS011;3416;53.074;8.822;2023-03-19T02:03:58;24.48;;;18.45;;
6757;SDS011;3416;53.074;8.822;2023-03-19T02:06:25;24.02;;;18.10;;
6757;SDS011;3416;53.074;8.822;2023-03-19T02:08:54;20.52;;;17.90;;
6757;SDS011;3416;53.074;8.822;2023-03-19T02:11:24;26.42;;;19.83;;
6757;SDS011;3416;53.074;8.822;2023-03-19T02:13:51;22.00;;;18.13;;
6757;SDS011;3416;53.074;8.822;2023-03-19T02:16:19;22.02;;;18.83;;
6757;SDS011;3416;53.074;8.822;2023-03-19T02:18:47;20.35;;;16.33;;
6757;SDS011;3416;53.074;8.822;2023-03-19T02:21:14;21.30;;;16.85;;
6757;SDS011;3416;53.074;8.822;2023-03-19T02:23:44;25.05;;;17.42;;
6757;SDS011;3416;53.074;8.822;2023-03-19T02:26:19;24.13;;;17.73;;
6757;SDS011;3416;53.074;8.822;2023-03-19T02:28:49;23.02;;;17.05;;
6757;SDS011;3416;53.074;8.822;2023-03-19T02:31:17;21.73;;;15.70;;
6757;SDS011;3416;53.074;8.822;2023-03-19T02:33:54;18.98;;;16.10;;
6757;SDS011;3416;53.074;8.822;2023-03-19T02:36:23;19.73;;;16.02;;
6757;SDS011;3416;53.074;8.822;2023-03-19T02:38:53;21.35;;;17.67;;
6757;SDS011;3416;53.074;8.822;2023-03-19T02:41:27;24.58;;;17.40;;
6757;SDS011;3416;53.074;8.822;2023-03-19T02:46:35;20.75;;;16.90;;
6757;SDS011;3416;53.074;8.822;2023-03-19T02:49:02;19.27;;;16.67;;
6757;SDS011;3416;53.074;8.822;2023-03-19T02:51:29;18.23;;;16.13;;
6757;SDS011;3416;53.074;8.822;2023-03-19T02:53:56;17.35;;;15.40;;
6757;SDS011;3416;53.074;8.822;2023-03-19T02:56:24;21.67;;;18.88;;
6757;SDS011;3416;53.074;8.822;2023-03-19T02:58:53;23.27;;;17.63;;
6757;SDS011;3416;53.074;8.822;2023-03-19T03:01:20;21.30;;;16.52;;
6757;SDS011;3416;53.074;8.822;2023-03-19T03:03:47;17.90;;;15.68;;
6757;SDS011;3416;53.074;8.822;2023-03-19T03:06:14;17.75;;;15.50;;
6757;SDS011;3416;53.074;8.822;2023-03-19T03:08:46;17.70;;;14.93;;
6757;SDS011;3416;53.074;8.822;2023-03-19T03:11:13;22.67;;;18.90;;
6757;SDS011;3416;53.074;8.822;2023-03-19T03:13:40;19.13;;;16.48;;
6757;SDS011;3416;53.074;8.822;2023-03-19T03:16:08;19.75;;;16.58;;
6757;SDS011;3416;53.074;8.822;2023-03-19T03:18:35;17.58;;;14.98;;
6757;SDS011;3416;53.074;8.822;2023-03-19T03:21:02;18.23;;;15.23;;
6757;SDS011;3416;53.074;8.822;2023-03-19T03:23:29;17.17;;;15.15;;
6757;SDS011;3416;53.074;8.822;2023-03-19T03:25:57;35.28;;;16.90;;
6757;SDS011;3416;53.074;8.822;2023-03-19T03:28:24;18.40;;;16.23;;
6757;SDS011;3416;53.074;8.822;2023-03-19T03:30:56;20.27;;;15.40;;
6757;SDS011;3416;53.074;8.822;2023-03-19T03:33:25;21.70;;;16.10;;
6757;SDS011;3416;53.074;8.822;2023-03-19T03:35:52;19.73;;;17.05;;
6757;SDS011;3416;53.074;8.822;2023-03-19T03:38:19;21.33;;;17.27;;
6757;SDS011;3416;53.074;8.822;2023-03-19T03:40:48;18.90;;;15.82;;
6757;SDS011;3416;53.074;8.822;2023-03-19T03:43:16;18.42;;;16.45;;
6757;SDS011;3416;53.074;8.822;2023-03-19T03:45:45;20.48;;;16.30;;
6757;SDS011;3416;53.074;8.822;2023-03-19T03:48:12;22.88;;;16.67;;
6757;SDS011;3416;53.074;8.822;2023-03-19T03:50:41;19.15;;;16.55;;
6757;SDS011;3416;53.074;8.822;2023-03-19T03:53:08;20.67;;;16.65;;
6757;SDS011;3416;53.074;8.822;2023-03-19T03:55:37;20.08;;;17.00;;
6757;SDS011;3416;53.074;8.822;2023-03-19T03:58:04;23.50;;;17.75;;
6757;SDS011;3416;53.074;8.822;2023-03-19T04:00:31;18.38;;;16.40;;
6757;SDS011;3416;53.074;8.822;2023-03-19T04:02:58;18.70;;;16.67;;
6757;SDS011;3416;53.074;8.822;2023-03-19T04:05:25;21.88;;;16.80;;
6757;SDS011;3416;53.074;8.822;2023-03-19T04:07:54;20.42;;;18.33;;
6757;SDS011;3416;53.074;8.822;2023-03-19T04:10:21;21.25;;;17.73;;
6757;SDS011;3416;53.074;8.822;2023-03-19T04:12:48;24.40;;;16.77;;
6757;SDS011;3416;53.074;8.822;2023-03-19T04:15:16;21.63;;;17.15;;
6757;SDS011;3416;53.074;8.822;2023-03-19T04:17:43;20.02;;;16.10;;
6757;SDS011;3416;53.074;8.822;2023-03-19T04:20:10;18.52;;;16.52;;
6757;SDS011;3416;53.074;8.822;2023-03-19T04:22:37;20.30;;;17.02;;
6757;SDS011;3416;53.074;8.822;2023-03-19T04:25:06;20.70;;;16.75;;
6757;SDS011;3416;53.074;8.822;2023-03-19T04:27:34;24.67;;;19.45;;
6757;SDS011;3416;53.074;8.822;2023-03-19T04:30:01;20.00;;;15.95;;
6757;SDS011;3416;53.074;8.822;2023-03-19T04:32:29;18.00;;;15.95;;
6757;SDS011;3416;53.074;8.822;2023-03-19T04:34:57;24.83;;;18.10;;
6757;SDS011;3416;53.074;8.822;2023-03-19T04:37:24;22.60;;;18.17;;
6757;SDS011;3416;53.074;8.822;2023-03-19T04:39:52;24.02;;;19.48;;
6757;SDS011;3416;53.074;8.822;2023-03-19T04:42:20;22.95;;;16.38;;
6757;SDS011;3416;53.074;8.822;2023-03-19T04:44:48;20.55;;;18.33;;
6757;SDS011;3416;53.074;8.822;2023-03-19T04:47:16;16.73;;;14.95;;
6757;SDS011;3416;53.074;8.822;2023-03-19T04:49:43;19.55;;;17.55;;
6757;SDS011;3416;53.074;8.822;2023-03-19T04:52:11;23.73;;;20.13;;
6757;SDS011;3416;53.074;8.822;2023-03-19T04:54:38;22.25;;;17.92;;
6757;SDS011;3416;53.074;8.822;2023-03-19T04:57:05;27.70;;;17.92;;
6757;SDS011;3416;53.074;8.822;2023-03-19T04:59:33;22.73;;;17.75;;
6757;SDS011;3416;53.074;8.822;2023-03-19T05:02:00;20.60;;;17.48;;
6757;SDS011;3416;53.074;8.822;2023-03-19T05:04:27;20.25;;;18.15;;
6757;SDS011;3416;53.074;8.822;2023-03-19T05:06:54;19.77;;;17.55;;
6757;SDS011;3416;53.074;8.822;2023-03-19T05:09:22;20.92;;;17.30;;
6757;SDS011;3416;53.074;8.822;2023-03-19T05:11:49;22.42;;;17.95;;
6757;SDS011;3416;53.074;8.822;2023-03-19T05:14:16;24.45;;;18.58;;
6757;SDS011;3416;53.074;8.822;2023-03-19T05:16:44;21.50;;;19.13;;
6757;SDS011;3416;53.074;8.822;2023-03-19T05:19:11;19.30;;;16.33;;
6757;SDS011;3416;53.074;8.822;2023-03-19T05:21:38;27.25;;;17.42;;
6757;SDS011;3416;53.074;8.822;2023-03-19T05:24:07;21.25;;;17.63;;
6757;SDS011;3416;53.074;8.822;2023-03-19T05:26:35;20.00;;;17.35;;
6757;SDS011;3416;53.074;8.822;2023-03-19T05:29:02;20.65;;;17.48;;
6757;SDS011;3416;53.074;8.822;2023-03-19T05:31:29;22.17;;;18.02;;
6757;SDS011;3416;53.074;8.822;2023-03-19T05:33:58;21.17;;;17.80;;
6757;SDS011;3416;53.074;8.822;2023-03-19T05:36:25;19.67;;;17.10;;
6757;SDS011;3416;53.074;8.822;2023-03-19T05:38:53;19.25;;;16.45;;
6757;SDS011;3416;53.074;8.822;2023-03-19T05:41:20;25.20;;;17.95;;
6757;SDS011;3416;53.074;8.822;2023-03-19T05:43:47;22.00;;;18.55;;
6757;SDS011;3416;53.074;8.822;2023-03-19T05:46:15;23.52;;;18.83;;
6757;SDS011;3416;53.074;8.822;2023-03-19T05:48:42;24.45;;;19.15;;
6757;SDS011;3416;53.074;8.822;2023-03-19T05:51:12;20.95;;;18.33;;
6757;SDS011;3416;53.074;8.822;2023-03-19T05:53:39;20.55;;;18.42;;
6757;SDS011;3416;53.074;8.822;2023-03-19T05:56:06;23.90;;;17.40;;
6757;SDS011;3416;53.074;8.822;2023-03-19T05:58:33;20.48;;;17.90;;
6757;SDS011;3416;53.074;8.822;2023-03-19T06:01:00;23.63;;;20.27;;
6757;SDS011;3416;53.074;8.822;2023-03-19T06:03:27;25.75;;;21.35;;
6757;SDS011;3416;53.074;8.822;2023-03-19T06:05:54;24.17;;;18.50;;
6757;SDS011;3416;53.074;8.822;2023-03-19T06:08:23;19.35;;;17.35;;
6757;SDS011;3416;53.074;8.822;2023-03-19T06:10:51;20.75;;;18.55;;
6757;SDS011;3416;53.074;8.822;2023-03-19T06:13:18;20.52;;;16.95;;
6757;SDS011;3416;53.074;8.822;2023-03-19T06:15:46;19.38;;;17.30;;
6757;SDS011;3416;53.074;8.822;2023-03-19T06:18:14;23.67;;;18.20;;
6757;SDS011;3416;53.074;8.822;2023-03-19T06:20:41;20.08;;;18.08;;
6757;SDS011;3416;53.074;8.822;2023-03-19T06:23:09;21.80;;;17.33;;
6757;SDS011;3416;53.074;8.822;2023-03-19T06:25:37;21.15;;;16.38;;
6757;SDS011;3416;53.074;8.822;2023-03-19T06:28:04;18.60;;;15.27;;
6757;SDS011;3416;53.074;8.822;2023-03-19T06:30:32;19.25;;;16.35;;
6757;SDS011;3416;53.074;8.822;2023-03-19T06:32:59;17.67;;;15.48;;
6757;SDS011;3416;53.074;8.822;2023-03-19T06:35:26;19.90;;;14.93;;
6757;SDS011;3416;53.074;8.822;2023-03-19T06:37:53;16.92;;;13.90;;
6757;SDS011;3416;53.074;8.822;2023-03-19T06:40:20;16.63;;;14.80;;
6757;SDS011;3416;53.074;8.822;2023-03-19T06:42:48;16.25;;;14.65;;
6757;SDS011;3416;53.074;8.822;2023-03-19T06:45:16;12.40;;;11.10;;
6757;SDS011;3416;53.074;8.822;2023-03-19T06:47:44;13.50;;;12.23;;
6757;SDS011;3416;53.074;8.822;2023-03-19T06:50:12;14.30;;;11.43;;
6757;SDS011;3416;53.074;8.822;2023-03-19T06:52:40;16.50;;;13.15;;
6757;SDS011;3416;53.074;8.822;2023-03-19T06:55:07;17.52;;;15.73;;
6757;SDS011;3416;53.074;8.822;2023-03-19T06:57:35;16.73;;;14.40;;
6757;SDS011;3416;53.074;8.822;2023-03-19T07:00:05;18.58;;;14.43;;
6757;SDS011;3416;53.074;8.822;2023-03-19T07:02:35;16.45;;;14.85;;
6757;SDS011;3416;53.074;8.822;2023-03-19T07:05:03;18.60;;;14.27;;
6757;SDS011;3416;53.074;8.822;2023-03-19T07:07:31;16.30;;;14.35;;
6757;SDS011;3416;53.074;8.822;2023-03-19T07:09:58;15.25;;;13.63;;
6757;SDS011;3416;53.074;8.822;2023-03-19T07:12:25;18.92;;;15.77;;
6757;SDS011;3416;53.074;8.822;2023-03-19T07:14:55;17.15;;;15.23;;
6757;SDS011;3416;53.074;8.822;2023-03-19T07:17:23;15.15;;;13.65;;
6757;SDS011;3416;53.074;8.822;2023-03-19T07:19:50;19.08;;;12.77;;
6757;SDS011;3416;53.074;8.822;2023-03-19T07:22:17;16.42;;;14.40;;
6757;SDS011;3416;53.074;8.822;2023-03-19T07:24:45;14.13;;;12.10;;
6757;SDS011;3416;53.074;8.822;2023-03-19T07:27:12;13.75;;;12.02;;
6757;SDS011;3416;53.074;8.822;2023-03-19T07:29:39;14.73;;;13.07;;
6757;SDS011;3416;53.074;8.822;2023-03-19T07:32:07;15.75;;;13.38;;
6757;SDS011;3416;53.074;8.822;2023-03-19T07:34:36;17.13;;;15.32;;
6757;SDS011;3416;53.074;8.822;2023-03-19T07:37:03;15.90;;;14.18;;
6757;SDS011;3416;53.074;8.822;2023-03-19T07:39:31;16.90;;;15.02;;
6757;SDS011;3416;53.074;8.822;2023-03-19T07:41:58;18.17;;;13.02;;
6757;SDS011;3416;53.074;8.822;2023-03-19T07:44:25;14.48;;;12.98;;
6757;SDS011;3416;53.074;8.822;2023-03-19T07:46:52;16.33;;;13.38;;
6757;SDS011;3416;53.074;8.822;2023-03-19T07:49:19;15.93;;;12.18;;
6757;SDS011;3416;53.074;8.822;2023-03-19T07:51:48;15.13;;;13.50;;
6757;SDS011;3416;53.074;8.822;2023-03-19T07:54:16;14.35;;;12.85;;
6757;SDS011;3416;53.074;8.822;2023-03-19T07:56:43;16.52;;;12.55;;
6757;SDS011;3416;53.074;8.822;2023-03-19T07:59:10;16.00;;;12.20;;
6757;SDS011;3416;53.074;8.822;2023-03-19T08:01:37;15.85;;;12.05;;
6757;SDS011;3416;53.074;8.822;2023-03-19T08:04:04;11.55;;;10.32;;
6757;SDS011;3416;53.074;8.822;2023-03-19T08:06:31;13.10;;;11.70;;
6757;SDS011;3416;53.074;8.822;2023-03-19T08:09:00;10.70;;;9.75;;
6757;SDS011;3416;53.074;8.822;2023-03-19T08:11:28;45.80;;;25.58;;
6757;SDS011;3416;53.074;8.822;2023-03-19T08:13:55;47.28;;;23.15;;
6757;SDS011;3416;53.074;8.822;2023-03-19T08:16:24;35.30;;;20.13;;
6757;SDS011;3416;53.074;8.822;2023-03-19T08:18:51;20.23;;;13.88;;
6757;SDS011;3416;53.074;8.822;2023-03-19T08:21:18;23.58;;;16.02;;
6757;SDS011;3416;53.074;8.822;2023-03-19T08:23:45;24.83;;;15.38;;
6757;SDS011;3416;53.074;8.822;2023-03-19T08:26:13;18.88;;;10.90;;
6757;SDS011;3416;53.074;8.822;2023-03-19T08:28:42;20.38;;;13.38;;
6757;SDS011;3416;53.074;8.822;2023-03-19T08:31:09;15.63;;;9.90;;
6757;SDS011;3416;53.074;8.822;2023-03-19T08:33:37;13.93;;;9.50;;
6757;SDS011;3416;53.074;8.822;2023-03-19T08:36:06;17.08;;;11.07;;
6757;SDS011;3416;53.074;8.822;2023-03-19T08:38:34;12.50;;;10.43;;
6757;SDS011;3416;53.074;8.822;2023-03-19T08:41:02;10.60;;;9.55;;
6757;SDS011;3416;53.074;8.822;2023-03-19T08:43:32;15.23;;;9.93;;
6757;SDS011;3416;53.074;8.822;2023-03-19T08:46:02;13.15;;;9.45;;
6757;SDS011;3416;53.074;8.822;2023-03-19T08:48:30;10.00;;;9.10;;
6757;SDS011;3416;53.074;8.822;2023-03-19T08:50:57;11.07;;;9.13;;
6757;SDS011;3416;53.074;8.822;2023-03-19T08:53:26;16.38;;;9.45;;
6757;SDS011;3416;53.074;8.822;2023-03-19T08:55:55;9.63;;;8.60;;
6757;SDS011;3416;53.074;8.822;2023-03-19T08:58:23;9.75;;;8.10;;
6757;SDS011;3416;53.074;8.822;2023-03-19T09:00:58;10.40;;;8.00;;
6757;SDS011;3416;53.074;8.822;2023-03-19T09:03:27;10.98;;;7.95;;
6757;SDS011;3416;53.074;8.822;2023-03-19T09:05:56;9.70;;;7.85;;
6757;SDS011;3416;53.074;8.822;2023-03-19T09:08:24;10.15;;;8.43;;
6757;SDS011;3416;53.074;8.822;2023-03-19T09:10:52;18.35;;;11.38;;
6757;SDS011;3416;53.074;8.822;2023-03-19T09:13:20;9.13;;;8.23;;
6757;SDS011;3416;53.074;8.822;2023-03-19T09:15:47;9.80;;;8.60;;
6757;SDS011;3416;53.074;8.822;2023-03-19T09:18:16;15.13;;;10.05;;
6757;SDS011;3416;53.074;8.822;2023-03-19T09:20:44;12.35;;;8.88;;
6757;SDS011;3416;53.074;8.822;2023-03-19T09:23:13;12.82;;;8.18;;
6757;SDS011;3416;53.074;8.822;2023-03-19T09:25:40;9.37;;;7.90;;
6757;SDS011;3416;53.074;8.822;2023-03-19T09:28:08;9.00;;;8.03;;
6757;SDS011;3416;53.074;8.822;2023-03-19T09:30:36;9.60;;;7.27;;
6757;SDS011;3416;53.074;8.822;2023-03-19T09:33:04;8.53;;;5.80;;
6757;SDS011;3416;53.074;8.822;2023-03-19T09:35:33;8.93;;;6.90;;
6757;SDS011;3416;53.074;8.822;2023-03-19T09:38:01;9.63;;;5.70;;
6757;SDS011;3416;53.074;8.822;2023-03-19T09:40:32;5.97;;;5.27;;
6757;SDS011;3416;53.074;8.822;2023-03-19T09:43:04;6.80;;;6.20;;
6757;SDS011;3416;53.074;8.822;2023-03-19T09:45:49;8.27;;;5.93;;
6757;SDS011;3416;53.074;8.822;2023-03-19T09:48:18;7.63;;;6.57;;
6757;SDS011;3416;53.074;8.822;2023-03-19T09:50:54;7.67;;;6.07;;
6757;SDS011;3416;53.074;8.822;2023-03-19T09:53:23;10.40;;;6.83;;
6757;SDS011;3416;53.074;8.822;2023-03-19T09:56:01;8.03;;;6.67;;
6757;SDS011;3416;53.074;8.822;2023-03-19T09:58:34;8.93;;;6.85;;
6757;SDS011;3416;53.074;8.822;2023-03-19T10:01:02;7.50;;;5.90;;
6757;SDS011;3416;53.074;8.822;2023-03-19T10:03:34;8.10;;;6.10;;
6757;SDS011;3416;53.074;8.822;2023-03-19T10:06:14;6.57;;;5.93;;
6757;SDS011;3416;53.074;8.822;2023-03-19T10:12:02;8.23;;;4.70;;
6757;SDS011;3416;53.074;8.822;2023-03-19T10:17:54;6.60;;;5.57;;
6757;SDS011;3416;53.074;8.822;2023-03-19T10:20:54;6.57;;;5.10;;
6757;SDS011;3416;53.074;8.822;2023-03-19T10:23:41;7.20;;;5.07;;
6757;SDS011;3416;53.074;8.822;2023-03-19T10:26:27;8.50;;;5.73;;
6757;SDS011;3416;53.074;8.822;2023-03-19T10:29:06;18.17;;;5.70;;
6757;SDS011;3416;53.074;8.822;2023-03-19T10:31:52;7.03;;;5.10;;
6757;SDS011;3416;53.074;8.822;2023-03-19T10:34:30;9.50;;;5.03;;
6757;SDS011;3416;53.074;8.822;2023-03-19T10:37:03;6.80;;;4.63;;
6757;SDS011;3416;53.074;8.822;2023-03-19T10:39:51;6.40;;;4.90;;
6757;SDS011;3416;53.074;8.822;2023-03-19T10:42:45;12.60;;;6.33;;
6757;SDS011;3416;53.074;8.822;2023-03-19T10:45:40;10.03;;;6.03;;
6757;SDS011;3416;53.074;8.822;2023-03-19T10:48:28;6.23;;;5.00;;
6757;SDS011;3416;53.074;8.822;2023-03-19T10:51:03;6.77;;;5.73;;
6757;SDS011;3416;53.074;8.822;2023-03-19T10:53:37;10.43;;;6.73;;
6757;SDS011;3416;53.074;8.822;2023-03-19T10:56:22;5.93;;;5.33;;
6757;SDS011;3416;53.074;8.822;2023-03-19T10:59:18;9.40;;;6.20;;
6757;SDS011;3416;53.074;8.822;2023-03-19T11:02:13;12.20;;;6.47;;
6757;SDS011;3416;53.074;8.822;2023-03-19T11:05:18;6.50;;;5.77;;
6757;SDS011;3416;53.074;8.822;2023-03-19T11:08:03;9.10;;;6.00;;
6757;SDS011;3416;53.074;8.822;2023-03-19T11:10:51;9.43;;;7.37;;
6757;SDS011;3416;53.074;8.822;2023-03-19T11:13:38;6.70;;;5.30;;
6757;SDS011;3416;53.074;8.822;2023-03-19T11:16:26;7.80;;;6.00;;
6757;SDS011;3416;53.074;8.822;2023-03-19T11:19:23;13.20;;;6.40;;
6757;SDS011;3416;53.074;8.822;2023-03-19T11:21:58;7.87;;;5.50;;
6757;SDS011;3416;53.074;8.822;2023-03-19T11:24:48;6.20;;;5.00;;
6757;SDS011;3416;53.074;8.822;2023-03-19T11:27:17;9.90;;;5.40;;
6757;SDS011;3416;53.074;8.822;2023-03-19T11:29:55;8.90;;;6.07;;
6757;SDS011;3416;53.074;8.822;2023-03-19T11:35:26;9.20;;;6.60;;
6757;SDS011;3416;53.074;8.822;2023-03-19T11:37:58;12.17;;;6.50;;
6757;SDS011;3416;53.074;8.822;2023-03-19T11:40:30;8.40;;;6.63;;
6757;SDS011;3416;53.074;8.822;2023-03-19T11:43:23;7.20;;;6.07;;
6757;SDS011;3416;53.074;8.822;2023-03-19T11:46:05;7.70;;;5.33;;
6757;SDS011;3416;53.074;8.822;2023-03-19T11:48:46;6.77;;;6.07;;
6757;SDS011;3416;53.074;8.822;2023-03-19T11:51:27;6.70;;;5.60;;
6757;SDS011;3416;53.074;8.822;2023-03-19T11:54:02;9.67;;;6.43;;
6757;SDS011;3416;53.074;8.822;2023-03-19T11:56:35;10.60;;;5.90;;
6757;SDS011;3416;53.074;8.822;2023-03-19T11:59:11;9.00;;;6.80;;
6757;SDS011;3416;53.074;8.822;2023-03-19T12:01:58;9.60;;;6.17;;
6757;SDS011;3416;53.074;8.822;2023-03-19T12:05:08;9.20;;;5.77;;
6757;SDS011;3416;53.074;8.822;2023-03-19T12:07:56;8.17;;;6.90;;
6757;SDS011;3416;53.074;8.822;2023-03-19T12:10:44;8.40;;;6.60;;
6757;SDS011;3416;53.074;8.822;2023-03-19T12:13:34;7.23;;;6.50;;
6757;SDS011;3416;53.074;8.822;2023-03-19T12:16:13;11.43;;;7.63;;
6757;SDS011;3416;53.074;8.822;2023-03-19T12:18:59;12.10;;;9.20;;
6757;SDS011;3416;53.074;8.822;2023-03-19T12:21:44;14.07;;;12.68;;
6757;SDS011;3416;53.074;8.822;2023-03-19T12:24:21;20.00;;;16.45;;
6757;SDS011;3416;53.074;8.822;2023-03-19T12:26:58;27.23;;;19.67;;
6757;SDS011;3416;53.074;8.822;2023-03-19T12:29:37;21.23;;;19.13;;
6757;SDS011;3416;53.074;8.822;2023-03-19T12:32:24;23.27;;;20.77;;
6757;SDS011;3416;53.074;8.822;2023-03-19T12:35:06;26.00;;;20.73;;
6757;SDS011;3416;53.074;8.822;2023-03-19T12:37:37;24.67;;;22.08;;
6757;SDS011;3416;53.074;8.822;2023-03-19T12:40:16;28.17;;;23.70;;
6757;SDS011;3416;53.074;8.822;2023-03-19T12:42:53;23.15;;;20.65;;
6757;SDS011;3416;53.074;8.822;2023-03-19T12:45:27;27.25;;;21.13;;
6757;SDS011;3416;53.074;8.822;2023-03-19T12:48:01;22.95;;;20.20;;
6757;SDS011;3416;53.074;8.822;2023-03-19T12:50:35;20.70;;;18.77;;
6757;SDS011;3416;53.074;8.822;2023-03-19T12:53:04;18.42;;;16.20;;
6757;SDS011;3416;53.074;8.822;2023-03-19T12:55:36;19.85;;;17.75;;
6757;SDS011;3416;53.074;8.822;2023-03-19T12:58:10;17.23;;;15.43;;
6757;SDS011;3416;53.074;8.822;2023-03-19T13:00:46;17.43;;;15.63;;
6757;SDS011;3416;53.074;8.822;2023-03-19T13:03:18;17.40;;;15.57;;
6757;SDS011;3416;53.074;8.822;2023-03-19T13:05:54;17.85;;;15.95;;
6757;SDS011;3416;53.074;8.822;2023-03-19T13:08:26;16.83;;;15.13;;
6757;SDS011;3416;53.074;8.822;2023-03-19T13:10:58;21.87;;;15.07;;
6757;SDS011;3416;53.074;8.822;2023-03-19T13:13:30;19.40;;;14.80;;
6757;SDS011;3416;53.074;8.822;2023-03-19T13:16:05;15.65;;;13.88;;
6757;SDS011;3416;53.074;8.822;2023-03-19T13:18:45;15.43;;;13.10;;
6757;SDS011;3416;53.074;8.822;2023-03-19T13:21:25;17.40;;;15.15;;
6757;SDS011;3416;53.074;8.822;2023-03-19T13:23:59;18.35;;;15.20;;
6757;SDS011;3416;53.074;8.822;2023-03-19T13:26:33;13.77;;;12.48;;
6757;SDS011;3416;53.074;8.822;2023-03-19T13:29:07;16.73;;;15.00;;
6757;SDS011;3416;53.074;8.822;2023-03-19T13:31:42;16.43;;;14.17;;
6757;SDS011;3416;53.074;8.822;2023-03-19T13:34:16;17.30;;;15.27;;
6757;SDS011;3416;53.074;8.822;2023-03-19T13:36:50;17.47;;;13.10;;
6757;SDS011;3416;53.074;8.822;2023-03-19T13:39:23;13.83;;;12.47;;
6757;SDS011;3416;53.074;8.822;2023-03-19T13:42:03;16.03;;;14.33;;
6757;SDS011;3416;53.074;8.822;2023-03-19T13:44:48;16.53;;;13.17;;
6757;SDS011;3416;53.074;8.822;2023-03-19T13:47:41;15.13;;;12.23;;
6757;SDS011;3416;53.074;8.822;2023-03-19T13:50:20;13.73;;;12.33;;
6757;SDS011;3416;53.074;8.822;2023-03-19T13:52:52;13.03;;;11.73;;
6757;SDS011;3416;53.074;8.822;2023-03-19T13:58:25;13.20;;;11.80;;
6757;SDS011;3416;53.074;8.822;2023-03-19T14:01:16;12.83;;;9.67;;
6757;SDS011;3416;53.074;8.822;2023-03-19T14:04:05;14.70;;;10.43;;
6757;SDS011;3416;53.074;8.822;2023-03-19T14:06:42;11.57;;;10.30;;
6757;SDS011;3416;53.074;8.822;2023-03-19T14:09:29;10.97;;;8.90;;
6757;SDS011;3416;53.074;8.822;2023-03-19T14:12:20;11.63;;;9.80;;
6757;SDS011;3416;53.074;8.822;2023-03-19T14:14:56;10.83;;;8.93;;
6757;SDS011;3416;53.074;8.822;2023-03-19T14:17:30;11.33;;;10.13;;
6757;SDS011;3416;53.074;8.822;2023-03-19T14:20:04;12.37;;;11.17;;
6757;SDS011;3416;53.074;8.822;2023-03-19T14:22:54;11.93;;;9.83;;
6757;SDS011;3416;53.074;8.822;2023-03-19T14:28:36;12.80;;;9.73;;
6757;SDS011;3416;53.074;8.822;2023-03-19T14:31:24;9.60;;;8.30;;
6757;SDS011;3416;53.074;8.822;2023-03-19T14:34:05;11.47;;;10.37;;
6757;SDS011;3416;53.074;8.822;2023-03-19T14:36:40;11.00;;;9.80;;
6757;SDS011;3416;53.074;8.822;2023-03-19T14:39:15;12.20;;;9.73;;
6757;SDS011;3416;53.074;8.822;2023-03-19T14:41:47;14.07;;;9.73;;
6757;SDS011;3416;53.074;8.822;2023-03-19T14:44:24;10.27;;;9.17;;
6757;SDS011;3416;53.074;8.822;2023-03-19T14:47:14;9.90;;;8.00;;
6757;SDS011;3416;53.074;8.822;2023-03-19T14:49:58;11.30;;;8.30;;
6757;SDS011;3416;53.074;8.822;2023-03-19T14:52:55;9.67;;;7.10;;
6757;SDS011;3416;53.074;8.822;2023-03-19T14:55:36;11.83;;;8.40;;
6757;SDS011;3416;53.074;8.822;2023-03-19T14:58:03;8.73;;;7.83;;
6757;SDS011;3416;53.074;8.822;2023-03-19T15:00:38;8.93;;;7.43;;
6757;SDS011;3416;53.074;8.822;2023-03-19T15:03:18;7.80;;;6.97;;
6757;SDS011;3416;53.074;8.822;2023-03-19T15:05:49;10.97;;;7.70;;
6757;SDS011;3416;53.074;8.822;2023-03-19T15:08:23;7.40;;;6.60;;
6757;SDS011;3416;53.074;8.822;2023-03-19T15:10:56;7.27;;;6.57;;
6757;SDS011;3416;53.074;8.822;2023-03-19T15:13:34;7.20;;;6.20;;
6757;SDS011;3416;53.074;8.822;2023-03-19T15:16:14;9.50;;;7.97;;
6757;SDS011;3416;53.074;8.822;2023-03-19T15:18:47;9.83;;;8.83;;
6757;SDS011;3416;53.074;8.822;2023-03-19T15:21:16;9.77;;;7.90;;
6757;SDS011;3416;53.074;8.822;2023-03-19T15:23:44;8.73;;;7.50;;
6757;SDS011;3416;53.074;8.822;2023-03-19T15:26:12;10.13;;;9.00;;
6757;SDS011;3416;53.074;8.822;2023-03-19T15:28:44;8.77;;;7.83;;
6757;SDS011;3416;53.074;8.822;2023-03-19T15:31:14;13.47;;;8.73;;
6757;SDS011;3416;53.074;8.822;2023-03-19T15:33:42;8.97;;;7.90;;
6757;SDS011;3416;53.074;8.822;2023-03-19T15:36:10;8.50;;;7.03;;
6757;SDS011;3416;53.074;8.822;2023-03-19T15:42:03;9.10;;;7.40;;
6757;SDS011;3416;53.074;8.822;2023-03-19T15:44:31;14.80;;;8.63;;